Latest Weather Observations for Walgett

IDN60801

Issued at 9:05 pm EST Tuesday 2 September 2014 (issued every 30 minutes, with the page automatically refreshed every 10 minutes)

About weather observations | Map of weather stations | Latest weather observations for NSW | Other Formats
Station Details ID: 052088 Name: WALGETT AIRPORT AWS Lat: -30.04 Lon: 148.12 Height: 133.0 m
Data from the previous 72 hours. | See also: Recent months at Walgett
Date/Time
EST
Temp
°C
App
Temp
°C
Dew
Point
Rel
Hum
%
Delta-T
°C
Wind Press
QNH
hPa
Press
MSL
hPa
Rain
since 9 am
mm
Dir
 
Spd
km/h
Gust
km/h
Spd
kts
Gust
kts
02/09:00pm 10.3 5.9 0.6 51 4.0 WSW 13 19 7 10 1018.7 1018.4 0.0
02/08:30pm 10.8 6.5 1.1 51 4.0 WSW 13 15 7 8 1018.6 - 0.0
02/08:00pm 11.8 7.1 0.9 47 4.6 WSW 15 20 8 11 1018.4 - 0.0
02/07:30pm 12.5 7.8 0.9 45 4.9 SW 15 20 8 11 1018.1 - 0.0
02/07:00pm 12.8 8.0 0.5 43 5.2 WSW 15 20 8 11 1017.5 - 0.0
02/06:30pm 14.2 8.1 0.5 39 5.8 SW 22 30 12 16 1017.1 - 0.0
02/06:00pm 14.8 8.7 0.6 38 6.1 SW 22 32 12 17 1016.7 1016.5 0.0
02/05:30pm 15.8 9.0 0.8 36 6.5 SW 26 39 14 21 1016.2 - 0.0
02/05:00pm 16.6 9.5 1.5 36 6.7 SW 28 39 15 21 1015.9 - 0.0
02/04:30pm 17.4 9.6 1.4 34 7.2 SSW 32 50 17 27 1015.6 - 0.0
02/04:00pm 17.5 9.4 1.1 33 7.3 SW 33 46 18 25 1015.3 - 0.0
02/03:30pm 18.5 12.0 0.6 30 8.0 SW 24 35 13 19 1014.9 - 0.0
02/03:00pm 16.8 8.5 0.0 32 7.3 SW 33 48 18 26 1015.0 1014.8 0.0
02/02:30pm 18.5 10.4 1.1 31 7.8 SW 33 46 18 25 1014.9 - 0.0
02/02:04pm 18.6 10.7 1.2 31 7.8 SW 32 50 17 27 1015.0 - 0.0
02/02:00pm 18.5 10.5 1.5 32 7.7 SW 33 50 18 27 1014.9 - 0.0
02/01:30pm 17.4 10.9 2.6 37 6.8 WSW 26 39 14 21 1015.0 - 0.0
02/01:00pm 18.4 11.3 3.8 38 6.9 WSW 30 39 16 21 1015.2 - 0.0
02/12:30pm 17.3 9.6 2.5 37 6.8 SW 32 46 17 25 1015.5 - 0.0
02/12:00pm 15.8 7.7 3.3 43 5.7 SW 35 48 19 26 1016.0 1015.8 0.0
02/11:42am 16.2 9.4 5.2 48 5.3 SW 30 50 16 27 1016.1 - 0.0
02/11:30am 15.3 7.9 4.9 50 4.9 SW 33 43 18 23 1016.3 - 0.0
02/11:06am 15.9 9.0 6.3 53 4.7 SW 32 50 17 27 1016.2 - 0.0
02/11:00am 15.4 8.4 5.9 53 4.6 SW 32 43 17 23 1016.3 - 0.0
02/10:30am 15.0 8.0 5.8 54 4.4 SW 32 48 17 26 1016.3 - 0.0
02/10:00am 16.2 9.9 7.2 55 4.5 SW 30 44 16 24 1016.1 - 0.0
02/09:30am 14.5 7.4 6.3 58 4.0 SW 33 46 18 25 1015.8 - 0.0
02/09:00am 14.3 8.5 8.0 66 3.2 SSW 28 39 15 21 1015.5 1015.3 0.0
02/08:30am 14.6 10.2 7.6 63 3.5 W 20 30 11 16 1015.1 - 0.0
02/08:00am 13.5 9.9 6.8 64 3.3 W 15 19 8 10 1014.8 - 0.0
02/07:30am 13.2 10.4 6.8 65 3.1 W 11 15 6 8 1014.1 - 0.0
02/07:00am 12.6 9.7 6.6 67 2.9 SSW 11 13 6 7 1013.2 - 0.0
02/06:30am 12.6 10.1 6.4 66 3.0 SE 9 11 5 6 1012.5 - 0.0
02/06:00am 12.9 9.6 6.3 64 3.2 SE 13 19 7 10 1012.4 1012.1 0.0
02/05:30am 13.0 10.0 6.1 63 3.3 SE 11 15 6 8 1012.4 - 0.0
02/05:00am 13.0 9.6 5.9 62 3.4 S 13 19 7 10 1012.6 - 0.0
02/04:30am 13.2 8.7 5.9 61 3.5 S 19 22 10 12 1012.9 - 0.0
02/04:00am 13.6 8.5 6.0 60 3.6 S 22 28 12 15 1013.1 - 0.0
02/03:30am 13.9 8.0 6.0 59 3.8 SSW 26 35 14 19 1013.3 - 0.0
02/03:00am 14.5 7.5 5.8 56 4.2 SSW 32 46 17 25 1013.5 1013.3 0.0
02/02:30am 14.5 7.3 3.0 46 5.2 SSW 30 43 16 23 1013.1 - 0.0
02/02:22am 14.8 7.6 0.6 38 6.1 SW 28 43 15 23 1012.9 - 0.0
02/02:00am 15.1 10.9 -0.6 34 6.6 N 11 13 6 7 1011.0 - 0.0
02/01:30am 13.2 9.0 1.8 46 5.0 N 13 15 7 8 1011.4 - 0.0
02/01:00am 11.4 7.8 0.5 47 4.5 N 9 11 5 6 1011.7 - 0.0
02/12:30am 13.2 9.5 -0.1 40 5.5 N 9 11 5 6 1012.2 - 0.0
02/12:00am 13.6 10.0 0.3 40 5.6 N 9 11 5 6 1012.4 1012.1 0.0
 
Date/Time
EST
Temp
°C
App
Temp
°C
Dew
Point
Rel
Hum
%
Delta-T
°C
Wind Press
QNH
hPa
Press
MSL
hPa
Rain
since 9 am
mm
Dir
 
Spd
km/h
Gust
km/h
Spd
kts
Gust
kts
01/11:30pm 13.8 9.9 1.1 42 5.5 N 11 11 6 6 1012.6 - 0.0
01/11:00pm 14.0 10.1 1.3 42 5.5 N 11 13 6 7 1012.7 - 0.0
01/10:30pm 13.6 9.7 1.3 43 5.3 N 11 13 6 7 1012.9 - 0.0
01/10:00pm 13.2 9.7 1.2 44 5.2 N 9 11 5 6 1013.2 - 0.0
01/09:30pm 13.7 10.2 1.4 43 5.3 N 9 9 5 5 1013.6 - 0.0
01/09:00pm 15.0 11.8 0.8 38 6.1 N 7 9 4 5 1013.8 1013.6 0.0
01/08:30pm 14.8 11.5 0.3 37 6.2 N 7 9 4 5 1013.8 - 0.0
01/08:00pm 15.4 12.1 0.0 35 6.6 N 7 9 4 5 1014.0 - 0.0
01/07:30pm 16.2 12.9 -0.1 33 7.0 N 7 9 4 5 1014.1 - 0.0
01/07:00pm 18.7 14.8 -1.2 26 8.5 N 9 9 5 5 1013.9 - 0.0
01/06:30pm 19.8 15.9 -1.3 24 9.1 N 9 9 5 5 1013.8 - 0.0
01/06:00pm 20.5 16.2 -1.3 23 9.5 N 11 13 6 7 1013.7 1013.5 0.0
01/05:30pm 22.8 17.4 -1.3 20 10.7 NNW 17 22 9 12 1013.6 - 0.0
01/05:00pm 23.9 18.4 -1.8 18 11.4 NNW 17 22 9 12 1013.5 - 0.0
01/04:30pm 24.0 18.6 -1.0 19 11.3 NNW 17 24 9 13 1013.3 - 0.0
01/04:00pm 24.0 20.1 -1.8 18 11.5 N 9 13 5 7 1013.6 - 0.0
01/03:30pm 24.7 20.0 -2.0 17 11.9 NNW 13 19 7 10 1013.6 - 0.0
01/03:00pm 24.8 20.0 0.3 20 11.4 NNW 15 20 8 11 1013.8 1013.6 0.0
01/02:30pm 24.1 19.2 -0.2 20 11.1 WNW 15 22 8 12 1014.2 - 0.0
01/02:00pm 25.2 19.9 -0.8 18 11.9 NW 17 26 9 14 1014.4 - 0.0
01/01:30pm 24.5 20.2 0.8 21 11.1 NW 13 20 7 11 1014.6 - 0.0
01/01:00pm 24.4 20.1 0.7 21 11.1 NNW 13 20 7 11 1015.1 - 0.0
01/12:30pm 24.0 19.7 1.0 22 10.8 NNW 13 20 7 11 1015.8 - 0.0
01/12:00pm 23.9 19.4 2.1 24 10.4 NNW 15 20 8 11 1016.6 1016.4 0.0
01/11:30am 23.3 18.4 2.2 25 10.1 NW 17 24 9 13 1017.3 - 0.0
01/11:00am 23.0 19.1 3.5 28 9.5 WNW 13 19 7 10 1017.9 - 0.0
01/10:30am 22.5 19.2 4.5 31 8.9 N 11 19 6 10 1018.2 - 0.0
01/10:00am 21.3 18.0 4.8 34 8.1 N 11 17 6 9 1018.5 - 0.0
01/09:30am 20.1 16.0 6.4 41 6.9 N 17 20 9 11 1018.5 - 0.0
01/09:00am 18.7 14.8 6.9 46 5.9 NNE 17 20 9 11 1018.5 1018.2 0.0
01/08:30am 16.9 13.8 7.3 53 4.8 NNE 13 17 7 9 1018.3 - 0.0
01/08:00am 14.1 11.4 7.2 63 3.4 NE 11 15 6 8 1018.4 - 0.0
01/07:30am 10.1 7.9 6.1 76 1.9 NNE 7 9 4 5 1018.6 - 0.0
01/07:00am 5.5 2.6 2.5 81 1.2 NE 7 9 4 5 1018.6 - 0.0
01/06:30am 4.1 2.3 1.1 81 1.2 CALM 0 0 0 0 1018.5 - 0.0
01/06:00am 4.1 2.2 0.6 78 1.3 CALM 0 0 0 0 1018.2 1017.9 0.0
01/05:30am 4.6 2.7 0.7 76 1.5 CALM 0 0 0 0 1017.8 - 0.0
01/05:00am 5.3 3.6 1.8 78 1.4 CALM 0 0 0 0 1017.4 - 0.0
01/04:30am 6.6 4.5 3.8 82 1.2 N 4 6 2 3 1017.4 - 0.0
01/04:00am 6.9 4.4 3.9 81 1.3 NNE 6 7 3 4 1017.0 - 0.0
01/03:30am 7.5 4.8 3.9 78 1.6 NNE 7 9 4 5 1017.0 - 0.0
01/03:00am 6.6 3.0 3.2 79 1.4 NNE 11 13 6 7 1016.8 1016.6 0.0
01/02:30am 7.0 5.5 3.1 76 1.6 CALM 0 0 0 0 1016.9 - 0.0
01/02:00am 7.4 6.0 3.6 77 1.6 CALM 0 0 0 0 1017.3 - 0.0
01/01:30am 7.8 6.5 4.0 77 1.7 CALM 0 0 0 0 1017.5 - 0.0
01/01:00am 7.8 6.3 3.1 72 2.0 CALM 0 0 0 0 1017.8 - 0.0
01/12:30am 8.3 7.0 3.9 74 1.9 CALM 0 0 0 0 1018.3 - 0.0
01/12:00am 7.9 6.5 3.4 73 1.9 CALM 0 0 0 0 1018.4 1018.1 0.0
 
Date/Time
EST
Temp
°C
App
Temp
°C
Dew
Point
Rel
Hum
%
Delta-T
°C
Wind Press
QNH
hPa
Press
MSL
hPa
Rain
since 9 am
mm
Dir
 
Spd
km/h
Gust
km/h
Spd
kts
Gust
kts
31/11:30pm 8.9 7.5 3.5 69 2.3 CALM 0 0 0 0 1018.5 - 0.0
31/11:00pm 9.0 6.6 2.3 63 2.8 SW 4 9 2 5 1018.6 - 0.0
31/10:30pm 9.8 6.9 1.5 56 3.5 S 6 7 3 4 1018.8 - 0.0
31/10:00pm 10.3 8.0 2.7 59 3.3 S 4 6 2 3 1018.8 - 0.0
31/09:30pm 11.4 8.5 2.4 54 3.9 SSW 7 7 4 4 1018.9 - 0.0
31/09:00pm 12.7 11.4 3.9 55 4.0 CALM 0 0 0 0 1018.7 1018.7 0.0
31/08:30pm 12.6 9.8 2.2 49 4.5 SE 6 7 3 4 1018.6 - 0.0
31/08:00pm 14.1 11.0 1.4 42 5.5 SE 7 9 4 5 1018.4 - 0.0
31/07:30pm 16.2 12.9 2.6 40 6.2 SSE 9 13 5 7 1018.2 - 0.0
31/07:00pm 16.4 13.2 3.1 41 6.1 SE 9 11 5 6 1017.9 - 0.0
31/06:30pm 17.1 12.7 2.7 38 6.6 S 15 17 8 9 1017.4 - 0.0
31/06:00pm 19.0 15.3 2.4 33 7.7 S 11 13 6 7 1017.3 1017.4 0.0
31/05:30pm 21.2 17.8 3.9 32 8.4 S 11 13 6 7 1017.0 - 0.0
31/05:00pm 22.2 18.5 4.3 31 8.8 S 13 20 7 11 1016.8 - 0.0
31/04:30pm 22.7 20.0 3.8 29 9.2 S 7 17 4 9 1016.7 - 0.0
31/04:00pm 23.2 20.7 3.7 28 9.5 W 6 9 3 5 1016.7 - 0.0
31/03:30pm 23.1 20.3 3.1 27 9.7 S 7 15 4 8 1016.9 - 0.0
31/03:00pm 23.1 18.4 3.1 27 9.7 SSW 17 20 9 11 1017.2 1017.3 0.0
31/02:30pm 23.4 19.7 4.4 29 9.4 SW 13 19 7 10 1017.4 - 0.0
31/02:00pm 22.8 18.5 3.4 28 9.4 WSW 15 22 8 12 1017.9 - 0.0
31/01:30pm 22.4 18.6 4.0 30 9.0 WSW 13 22 7 12 1018.3 - 0.0
31/01:00pm 22.5 19.1 4.1 30 9.0 S 11 22 6 12 1018.7 - 0.0
31/12:30pm 21.6 18.2 4.2 32 8.5 SW 11 19 6 10 1019.2 - 0.0
31/12:00pm 21.4 18.4 4.0 32 8.4 SW 9 19 5 10 1019.8 1019.9 0.0
31/11:30am 21.2 18.3 4.7 34 8.1 NNE 9 17 5 9 1020.2 - 0.0
31/11:00am 20.7 18.0 7.3 42 6.9 S 11 17 6 9 1020.6 - 0.0
31/10:30am 19.3 16.7 7.7 47 6.0 E 11 17 6 9 1021.1 - 0.0
31/10:00am 19.3 17.1 9.2 52 5.4 E 11 17 6 9 1021.1 - 0.0
31/09:30am 17.9 15.6 9.0 56 4.7 E 11 17 6 9 1021.3 - 0.0
31/09:00am 16.6 14.0 9.3 62 3.8 E 13 17 7 9 1021.6 1021.7 0.0
31/08:30am 14.8 12.1 9.0 68 3.0 E 13 17 7 9 1021.5 - 0.0
31/08:00am 12.6 11.6 8.7 77 2.0 SE 4 9 2 5 1021.3 - 0.0
31/07:30am 8.3 7.5 6.4 88 0.9 CALM 0 0 0 0 1021.2 - 0.0
31/07:00am 5.1 3.7 3.8 91 0.5 CALM 0 0 0 0 1021.0 - 0.0
31/06:30am 4.6 3.1 3.1 90 0.6 CALM 0 0 0 0 1020.8 - 0.0
31/06:00am 4.6 3.0 2.6 87 0.8 CALM 0 0 0 0 1020.6 1020.7 0.0
31/05:30am 5.1 3.6 3.1 87 0.8 CALM 0 0 0 0 1020.4 - 0.0
31/05:00am 6.1 4.9 4.7 91 0.6 CALM 0 0 0 0 1020.4 - 0.0
31/04:30am 6.4 5.1 4.1 85 1.0 CALM 0 0 0 0 1020.3 - 0.0
31/04:00am 6.8 5.5 4.1 83 1.2 CALM 0 0 0 0 1020.3 - 0.0
31/03:30am 7.4 6.2 4.4 81 1.3 CALM 0 0 0 0 1020.2 - 0.0
31/03:00am 8.1 6.8 4.1 76 1.7 CALM 0 0 0 0 1020.2 1020.3 0.0
31/02:30am 8.9 7.7 4.5 74 2.0 CALM 0 4 0 2 1020.5 - 0.0
31/02:00am 9.4 7.0 4.2 70 2.3 SSE 6 6 3 3 1020.7 - 0.0
31/01:30am 9.6 7.0 4.0 68 2.5 SSE 7 9 4 5 1021.1 - 0.0
31/01:00am 10.1 6.8 4.7 69 2.4 SSE 11 15 6 8 1021.1 - 0.0
31/12:30am 9.4 6.7 3.8 68 2.5 SSW 7 9 4 5 1021.1 - 0.0
31/12:00am 10.4 7.2 5.0 69 2.5 SSW 11 11 6 6 1021.1 1021.2 0.0
 
Date/Time
EST
Temp
°C
App
Temp
°C
Dew
Point
Rel
Hum
%
Delta-T
°C
Wind Press
QNH
hPa
Press
MSL
hPa
Rain
since 9 am
mm
Dir
 
Spd
km/h
Gust
km/h
Spd
kts
Gust
kts
30/11:30pm 10.4 7.8 4.3 66 2.7 SSW 7 9 4 5 1021.1 - 0.0
30/11:00pm 9.2 6.6 3.2 66 2.6 SSW 6 7 3 4 1021.2 - 0.0
30/10:30pm 10.2 7.1 3.5 63 2.9 SSW 9 11 5 6 1021.2 - 0.0
30/10:00pm 10.6 7.4 2.9 59 3.4 SSW 9 11 5 6 1021.2 - 0.0
30/09:30pm 11.2 8.0 3.3 58 3.5 SW 9 11 5 6 1021.4 - 0.0

Other Formats:

Comma delimited format used in spreadsheet applications
http://www.bom.gov.au/fwo/IDN60801/IDN60801.95715.axf

JavaScript Object Notation format (JSON) in row-major order
http://www.bom.gov.au/fwo/IDN60801/IDN60801.95715.json